createdAt,value
2023-03-02T00:01:47.998Z,52.45
2023-03-02T00:03:51.420Z,53.30
2023-03-02T00:05:56.449Z,50.95
2023-03-02T00:08:02.459Z,51.35
2023-03-02T00:10:06.118Z,49.47
2023-03-02T00:12:09.521Z,51.63
2023-03-02T00:14:12.588Z,50.55
2023-03-02T00:16:15.517Z,49.08
2023-03-02T00:18:18.465Z,49.13
2023-03-02T00:20:21.398Z,50.30
2023-03-02T00:22:24.343Z,48.85
2023-03-02T00:24:28.579Z,49.70
2023-03-02T00:26:34.867Z,54.65
2023-03-02T00:28:37.995Z,52.22
2023-03-02T00:30:40.978Z,53.10
2023-03-02T00:32:44.611Z,51.55
2023-03-02T00:34:47.619Z,52.80
2023-03-02T00:36:50.643Z,55.05
2023-03-02T00:38:53.558Z,52.00
2023-03-02T00:40:59.615Z,51.30
2023-03-02T00:43:02.881Z,50.42
2023-03-02T00:45:07.289Z,51.13
2023-03-02T00:47:10.357Z,50.55
2023-03-02T00:49:13.569Z,49.38
2023-03-02T00:51:16.798Z,47.85
2023-03-02T00:53:19.812Z,49.67
2023-03-02T00:55:22.827Z,48.92
2023-03-02T00:57:27.856Z,47.65
2023-03-02T00:59:32.035Z,50.63
2023-03-02T01:01:44.856Z,52.92
2023-03-02T01:03:47.926Z,51.10
2023-03-02T01:05:55.578Z,52.00
2023-03-02T01:07:58.490Z,52.75
2023-03-02T01:10:01.532Z,54.10
2023-03-02T01:12:06.152Z,55.72
2023-03-02T01:14:10.594Z,57.63
2023-03-02T01:16:14.033Z,56.97
2023-03-02T01:18:16.976Z,55.20
2023-03-02T01:20:20.243Z,53.63
2023-03-02T01:22:23.674Z,56.08
2023-03-02T01:24:26.664Z,53.85
2023-03-02T01:26:29.738Z,52.13
2023-03-02T01:28:33.074Z,48.20
2023-03-02T01:30:37.805Z,47.28
2023-03-02T01:32:40.849Z,47.88
2023-03-02T01:34:43.885Z,49.60
2023-03-02T01:36:46.886Z,51.00
2023-03-02T01:38:49.966Z,49.28
2023-03-02T01:40:53.483Z,46.75
2023-03-02T01:43:02.664Z,46.47
2023-03-02T01:45:06.906Z,48.13
2023-03-02T01:47:21.174Z,49.55
2023-03-02T01:49:38.154Z,48.75
2023-03-02T01:51:47.504Z,46.90
2023-03-02T01:53:54.641Z,47.13
2023-03-02T01:56:00.060Z,52.95
2023-03-02T01:58:04.749Z,55.20
2023-03-02T02:00:10.783Z,54.93
2023-03-02T02:02:18.112Z,51.42
2023-03-02T02:04:22.066Z,54.85
2023-03-02T02:06:29.479Z,55.58
2023-03-02T02:08:33.343Z,54.78
2023-03-02T02:10:37.894Z,56.53
2023-03-02T02:12:40.902Z,57.03
2023-03-02T02:14:47.312Z,55.75
2023-03-02T02:16:51.441Z,58.60
2023-03-02T02:18:56.422Z,56.22
2023-03-02T02:20:59.978Z,54.55
2023-03-02T02:23:14.224Z,53.95
2023-03-02T02:25:26.162Z,51.03
2023-03-02T02:27:34.331Z,51.13
2023-03-02T02:29:45.898Z,52.42
2023-03-02T02:31:53.986Z,54.28
2023-03-02T02:34:01.129Z,54.08
2023-03-02T02:36:08.183Z,57.33
2023-03-02T02:38:14.581Z,57.42
2023-03-02T02:40:21.252Z,57.10
2023-03-02T02:42:29.771Z,55.25
2023-03-02T02:44:34.654Z,54.90
2023-03-02T02:46:37.502Z,56.50
2023-03-02T02:48:40.646Z,55.83
2023-03-02T02:50:44.788Z,55.35
2023-03-02T02:52:54.052Z,56.88
2023-03-02T02:54:59.486Z,54.85
2023-03-02T02:57:04.602Z,58.13
2023-03-02T02:59:16.603Z,58.92
2023-03-02T03:01:27.561Z,58.78
2023-03-02T03:03:34.076Z,62.25
2023-03-02T03:05:40.373Z,59.75
2023-03-02T03:07:43.381Z,59.35
2023-03-02T03:09:49.151Z,59.72
2023-03-02T03:11:55.061Z,59.83
2023-03-02T03:14:09.912Z,59.40
2023-03-02T03:16:16.264Z,59.88
2023-03-02T03:18:25.052Z,58.10
2023-03-02T03:20:29.860Z,57.60
2023-03-02T03:22:35.170Z,54.42
2023-03-02T03:24:40.077Z,51.83
2023-03-02T03:26:43.622Z,51.50
2023-03-02T03:28:46.848Z,50.75
2023-03-02T03:30:50.156Z,51.28
2023-03-02T03:32:53.235Z,51.72
2023-03-02T03:34:57.665Z,53.08
2023-03-02T03:37:04.143Z,53.40
2023-03-02T03:39:11.503Z,53.00
2023-03-02T03:41:15.126Z,52.08
2023-03-02T03:43:18.452Z,51.33
2023-03-02T03:45:30.001Z,51.83
2023-03-02T03:47:33.803Z,51.53
2023-03-02T03:49:37.456Z,52.15
2023-03-02T03:51:43.707Z,53.53
2023-03-02T03:53:47.173Z,51.13
2023-03-02T03:55:50.917Z,51.25
2023-03-02T03:57:53.880Z,49.17
2023-03-02T03:59:57.182Z,51.63
2023-03-02T04:02:01.499Z,54.72
2023-03-02T04:04:11.495Z,55.05
2023-03-02T04:06:19.260Z,53.28
2023-03-02T04:08:24.213Z,55.92
2023-03-02T04:10:27.394Z,51.63
2023-03-02T04:12:31.520Z,51.10
2023-03-02T04:14:34.908Z,49.10
2023-03-02T04:16:38.268Z,48.25
2023-03-02T04:18:41.198Z,48.10
2023-03-02T04:20:44.184Z,47.95
2023-03-02T04:22:52.160Z,48.97
2023-03-02T04:24:57.058Z,47.85
2023-03-02T04:27:01.296Z,46.88
2023-03-02T04:29:05.322Z,47.22
2023-03-02T04:31:09.375Z,46.30
2023-03-02T04:33:12.766Z,45.60
2023-03-02T04:35:16.398Z,46.63
2023-03-02T04:37:19.357Z,46.33
2023-03-02T04:39:23.214Z,45.50
2023-03-02T04:41:29.598Z,45.65
2023-03-02T04:43:32.658Z,42.72
2023-03-02T04:45:35.683Z,43.88
2023-03-02T04:47:38.522Z,44.35
2023-03-02T04:49:41.577Z,43.67
2023-03-02T04:51:46.673Z,44.38
2023-03-02T04:53:49.534Z,45.80
2023-03-02T04:55:52.526Z,42.53
2023-03-02T04:57:57.034Z,44.85
2023-03-02T04:59:59.919Z,43.78
2023-03-02T05:02:03.555Z,43.00
2023-03-02T05:04:06.507Z,45.65
2023-03-02T05:06:10.554Z,43.90
2023-03-02T05:08:15.126Z,46.33
2023-03-02T05:10:19.604Z,45.07
2023-03-02T05:12:22.533Z,46.42
2023-03-02T05:14:27.638Z,47.75
2023-03-02T05:16:33.110Z,47.38
2023-03-02T05:18:36.404Z,47.75
2023-03-02T05:20:39.996Z,43.78
2023-03-02T05:22:43.215Z,46.25
2023-03-02T05:24:46.101Z,45.00
2023-03-02T05:26:49.089Z,48.22
2023-03-02T05:28:53.948Z,48.33
2023-03-02T05:30:58.807Z,51.50
2023-03-02T05:33:01.754Z,37.97
2023-03-02T05:35:05.275Z,47.40
2023-03-02T05:37:08.235Z,48.92
2023-03-02T05:39:11.642Z,48.92
2023-03-02T05:41:14.652Z,47.70
2023-03-02T05:43:20.435Z,50.67
2023-03-02T05:45:25.727Z,50.15
2023-03-02T05:49:32.984Z,45.97
2023-03-02T05:51:36.021Z,49.83
2023-03-02T05:53:38.823Z,45.70
2023-03-02T05:55:41.784Z,48.92
2023-03-02T05:57:44.934Z,49.70
2023-03-02T05:59:47.882Z,48.53
2023-03-02T06:01:50.877Z,47.58
2023-03-02T06:03:56.059Z,45.13
2023-03-02T06:05:58.916Z,46.75
2023-03-02T06:08:02.279Z,46.97
2023-03-02T06:10:06.759Z,44.72
2023-03-02T06:12:09.893Z,46.55
2023-03-02T06:14:12.742Z,43.95
2023-03-02T06:16:15.815Z,43.58
2023-03-02T06:18:18.778Z,41.78
2023-03-02T06:20:23.277Z,41.67
2023-03-02T06:22:26.700Z,41.25
2023-03-02T06:24:29.691Z,40.97
2023-03-02T06:26:32.791Z,41.83
2023-03-02T06:28:49.818Z,41.03
2023-03-02T06:30:54.795Z,41.53
2023-03-02T06:32:57.769Z,44.63
2023-03-02T06:35:01.275Z,43.17
2023-03-02T06:37:05.700Z,41.28
2023-03-02T06:39:16.031Z,41.97
2023-03-02T06:41:19.054Z,44.42
2023-03-02T06:43:22.043Z,42.95
2023-03-02T06:45:25.032Z,44.95
2023-03-02T06:47:27.867Z,43.50
2023-03-02T06:49:31.089Z,42.28
2023-03-02T06:51:34.680Z,43.50
2023-03-02T06:53:39.067Z,42.42
2023-03-02T06:55:41.959Z,43.10
2023-03-02T06:57:45.115Z,45.80
2023-03-02T06:59:48.010Z,49.53
2023-03-02T07:01:52.101Z,47.95
2023-03-02T07:03:55.100Z,49.58
2023-03-02T07:05:58.068Z,49.97
2023-03-02T07:08:01.085Z,52.03
2023-03-02T07:10:06.516Z,50.67
2023-03-02T07:12:09.520Z,50.88
2023-03-02T07:14:12.567Z,50.65
2023-03-02T07:16:16.429Z,50.60
2023-03-02T07:18:19.367Z,57.30
2023-03-02T07:20:22.508Z,79.13
2023-03-02T07:22:25.477Z,82.68
2023-03-02T07:24:28.958Z,114.20
2023-03-02T07:26:33.835Z,101.95
2023-03-02T07:28:39.788Z,85.82
2023-03-02T07:30:42.879Z,79.30
2023-03-02T07:32:45.673Z,85.72
2023-03-02T07:34:48.612Z,84.97
2023-03-02T07:36:51.866Z,88.88
2023-03-02T07:38:55.345Z,99.47
2023-03-02T07:40:58.397Z,109.72
2023-03-02T07:43:02.912Z,111.65
2023-03-02T07:45:07.027Z,116.13
2023-03-02T07:47:10.067Z,129.10
2023-03-02T07:49:13.077Z,124.82
2023-03-02T07:51:16.279Z,117.78
2023-03-02T07:53:19.158Z,110.05
2023-03-02T07:55:22.589Z,105.40
2023-03-02T07:57:25.535Z,101.32
2023-03-02T07:59:30.078Z,94.93
2023-03-02T08:01:33.247Z,96.75
2023-03-02T08:03:36.558Z,88.65
2023-03-02T08:05:39.438Z,88.38
2023-03-02T08:07:42.998Z,90.88
2023-03-02T08:09:45.952Z,82.40
2023-03-02T08:11:48.947Z,73.97
2023-03-02T08:13:51.819Z,68.63
2023-03-02T08:16:02.062Z,70.38
2023-03-02T08:18:05.170Z,69.55
2023-03-02T08:20:09.569Z,64.95
2023-03-02T08:22:12.856Z,62.47
2023-03-02T08:24:15.721Z,55.70
2023-03-02T08:26:19.450Z,53.85
2023-03-02T08:28:23.334Z,45.75
2023-03-02T08:30:26.372Z,44.97
2023-03-02T08:32:31.179Z,43.10
2023-03-02T08:34:34.490Z,33.08
2023-03-02T08:36:37.471Z,37.13
2023-03-02T08:38:40.838Z,37.95
2023-03-02T08:40:43.770Z,35.03
2023-03-02T08:42:46.740Z,37.13
2023-03-02T08:44:49.744Z,39.10
2023-03-02T08:46:52.782Z,39.90
2023-03-02T08:48:57.437Z,38.80
2023-03-02T08:51:04.381Z,39.97
2023-03-02T08:53:07.472Z,41.45
2023-03-02T08:55:11.452Z,40.03
2023-03-02T08:57:14.542Z,43.60
2023-03-02T08:59:17.789Z,40.28
2023-03-02T09:01:23.482Z,39.05
2023-03-02T09:05:30.369Z,38.40
2023-03-02T09:07:33.215Z,41.45
2023-03-02T09:09:36.286Z,40.80
2023-03-02T09:11:39.585Z,38.30
2023-03-02T09:13:42.716Z,36.15
2023-03-02T09:15:46.335Z,36.05
2023-03-02T09:17:49.488Z,35.42
2023-03-02T09:19:52.356Z,34.35
2023-03-02T09:21:56.947Z,36.60
2023-03-02T09:24:00.199Z,35.80
2023-03-02T09:26:03.493Z,33.85
2023-03-02T09:28:06.498Z,42.10
2023-03-02T09:30:10.899Z,36.42
2023-03-02T09:32:16.328Z,36.55
2023-03-02T09:36:23.512Z,34.58
2023-03-02T09:38:27.984Z,36.72
2023-03-02T09:40:34.075Z,37.45
2023-03-02T09:42:54.954Z,34.03
2023-03-02T09:45:12.969Z,32.42
2023-03-02T09:47:34.795Z,34.05
2023-03-02T09:49:55.715Z,31.55
2023-03-02T09:52:11.929Z,29.85
2023-03-02T09:54:20.675Z,30.83
2023-03-02T09:56:25.082Z,30.23
2023-03-02T09:58:35.347Z,32.05
2023-03-02T10:00:42.724Z,28.85
2023-03-02T10:02:49.061Z,29.80
2023-03-02T10:04:54.808Z,32.15
2023-03-02T10:09:01.944Z,29.25
2023-03-02T10:11:14.927Z,33.80
2023-03-02T10:13:26.058Z,31.52
2023-03-02T10:15:36.887Z,26.05
2023-03-02T10:17:53.136Z,24.58
2023-03-02T10:20:01.313Z,23.58
2023-03-02T10:22:16.189Z,21.38
2023-03-02T10:24:36.214Z,17.27
2023-03-02T10:26:43.485Z,17.05
2023-03-02T10:28:52.412Z,18.95
2023-03-02T10:31:08.078Z,17.15
2023-03-02T10:33:14.276Z,21.65
2023-03-02T10:35:21.201Z,23.77
2023-03-02T10:37:26.021Z,23.33
2023-03-02T10:39:28.925Z,24.48
2023-03-02T10:41:36.572Z,25.13
2023-03-02T10:43:46.106Z,25.10
2023-03-02T10:45:59.935Z,23.83
2023-03-02T10:48:04.179Z,23.55
2023-03-02T10:50:22.527Z,20.95
2023-03-02T10:52:26.955Z,21.88
2023-03-02T10:54:31.567Z,23.55
2023-03-02T10:56:35.461Z,23.90
2023-03-02T10:58:38.556Z,22.70
2023-03-02T11:00:43.007Z,24.25
2023-03-02T11:02:53.308Z,23.83
2023-03-02T11:04:58.210Z,21.13
2023-03-02T11:07:09.125Z,26.30
2023-03-02T11:09:15.606Z,24.95
2023-03-02T11:11:23.673Z,26.20
2023-03-02T11:13:29.036Z,26.23
2023-03-02T11:15:40.757Z,25.00
2023-03-02T11:17:47.266Z,26.17
2023-03-02T11:19:52.967Z,22.95
2023-03-02T11:22:00.806Z,24.38
2023-03-02T11:24:12.001Z,23.67
2023-03-02T11:26:21.206Z,25.27
2023-03-02T11:28:38.713Z,23.38
2023-03-02T11:30:48.518Z,21.95
2023-03-02T11:32:58.774Z,23.58
2023-03-02T11:35:05.971Z,20.55
2023-03-02T11:37:18.947Z,22.52
2023-03-02T11:39:26.349Z,22.00
2023-03-02T11:41:31.486Z,21.48
2023-03-02T11:43:34.660Z,20.75
2023-03-02T11:45:43.838Z,23.50
2023-03-02T11:47:57.822Z,21.58
2023-03-02T11:50:11.006Z,21.98
2023-03-02T11:52:20.662Z,20.00
2023-03-02T11:54:34.209Z,21.13
2023-03-02T11:56:39.755Z,21.63
2023-03-02T11:58:43.985Z,21.52
2023-03-02T12:00:48.548Z,22.88
2023-03-02T12:03:00.297Z,21.85
2023-03-02T12:05:07.292Z,21.55
2023-03-02T12:07:19.627Z,24.58
2023-03-02T12:09:35.892Z,21.58
2023-03-02T12:11:40.822Z,19.33
2023-03-02T12:13:44.911Z,19.80
2023-03-02T12:15:48.717Z,20.75
2023-03-02T12:17:52.341Z,20.45
2023-03-02T12:20:07.506Z,19.48
2023-03-02T12:22:12.714Z,23.05
2023-03-02T12:24:27.039Z,23.30
2023-03-02T12:26:35.793Z,23.63
2023-03-02T12:28:40.536Z,23.00
2023-03-02T12:30:43.823Z,24.83
2023-03-02T12:33:00.721Z,36.75
2023-03-02T12:35:12.035Z,25.35
2023-03-02T12:37:18.597Z,24.08
2023-03-02T12:39:31.104Z,24.95
2023-03-02T12:42:08.836Z,26.13
2023-03-02T12:44:24.526Z,22.25
2023-03-02T12:46:30.796Z,25.55
2023-03-02T12:48:44.461Z,24.38
2023-03-02T12:50:48.752Z,25.80
2023-03-02T12:52:58.921Z,25.75
2023-03-02T12:55:04.744Z,25.08
2023-03-02T12:57:19.148Z,25.63
2023-03-02T12:59:25.442Z,23.98
2023-03-02T13:01:29.974Z,22.45
2023-03-02T13:03:32.862Z,22.27
2023-03-02T13:05:36.734Z,23.92
2023-03-02T13:07:43.211Z,21.90
2023-03-02T13:09:56.114Z,22.70
2023-03-02T13:12:00.150Z,21.00
2023-03-02T13:14:19.611Z,20.50
2023-03-02T13:16:24.643Z,21.02
2023-03-02T13:18:32.342Z,19.70
2023-03-02T13:20:35.256Z,19.77
2023-03-02T13:22:38.291Z,19.45
2023-03-02T13:24:46.624Z,19.50
2023-03-02T13:26:55.833Z,19.52
2023-03-02T13:29:05.536Z,19.70
2023-03-02T13:31:20.560Z,17.63
2023-03-02T13:33:25.707Z,17.65
2023-03-02T13:35:31.416Z,17.08
2023-03-02T13:39:41.001Z,16.88
2023-03-02T13:41:54.091Z,16.48
2023-03-02T13:43:57.669Z,17.60
2023-03-02T13:46:03.577Z,17.85
2023-03-02T13:48:17.340Z,18.10
2023-03-02T13:50:22.793Z,13.85
2023-03-02T13:54:32.476Z,15.07
2023-03-02T13:56:38.491Z,14.10
2023-03-02T13:58:41.666Z,14.40
2023-03-02T14:00:44.638Z,14.65
2023-03-02T14:02:50.877Z,15.13
2023-03-02T14:04:54.242Z,15.88
2023-03-02T14:06:57.304Z,16.63
2023-03-02T14:09:00.605Z,16.83
2023-03-02T14:11:04.895Z,15.68
2023-03-02T14:13:11.319Z,15.68
2023-03-02T14:15:16.919Z,15.70
2023-03-02T14:17:24.556Z,16.23
2023-03-02T14:19:28.856Z,15.63
2023-03-02T14:21:32.391Z,16.25
2023-03-02T14:23:35.584Z,15.63
2023-03-02T14:25:38.542Z,15.85
2023-03-02T14:27:43.018Z,15.77
2023-03-02T14:29:47.195Z,14.82
2023-03-02T14:31:50.543Z,16.00
2023-03-02T14:33:53.988Z,16.33
2023-03-02T14:35:59.250Z,17.45
2023-03-02T14:38:02.480Z,17.52
2023-03-02T14:40:15.831Z,16.48
2023-03-02T14:42:21.436Z,17.02
2023-03-02T14:44:25.546Z,18.60
2023-03-02T14:46:28.717Z,17.17
2023-03-02T14:48:31.705Z,17.65
2023-03-02T14:50:39.284Z,18.50
2023-03-02T14:52:46.901Z,17.15
2023-03-02T14:54:53.226Z,17.45
2023-03-02T14:56:56.089Z,17.60
2023-03-02T14:58:59.840Z,18.10
2023-03-02T15:01:02.831Z,18.70
2023-03-02T15:03:05.938Z,18.58
2023-03-02T15:05:09.822Z,17.30
2023-03-02T15:07:14.308Z,17.23
2023-03-02T15:09:18.625Z,18.45
2023-03-02T15:11:21.672Z,17.08
2023-03-02T15:13:24.554Z,18.02
2023-03-02T15:15:27.744Z,16.42
2023-03-02T15:17:30.551Z,15.57
2023-03-02T15:19:33.847Z,16.90
2023-03-02T15:21:36.724Z,14.73
2023-03-02T15:23:40.186Z,16.98
2023-03-02T15:25:44.600Z,14.35
2023-03-02T15:27:47.634Z,14.82
2023-03-02T15:29:50.944Z,15.75
2023-03-02T15:31:53.951Z,14.15
2023-03-02T15:33:57.207Z,14.02
2023-03-02T15:36:01.024Z,11.57
2023-03-02T15:38:04.896Z,14.80
2023-03-02T15:40:10.172Z,14.13
2023-03-02T15:42:14.710Z,14.35
2023-03-02T15:44:24.949Z,14.00
2023-03-02T15:46:28.021Z,13.68
2023-03-02T15:48:31.087Z,13.57
2023-03-02T15:50:33.987Z,14.35
2023-03-02T15:52:36.948Z,14.02
2023-03-02T15:54:40.436Z,13.48
2023-03-02T15:56:45.444Z,13.60
2023-03-02T15:58:50.288Z,13.52
2023-03-02T16:00:57.368Z,13.82
2023-03-02T16:03:00.531Z,13.07
2023-03-02T16:05:03.717Z,13.07
2023-03-02T16:07:06.806Z,13.48
2023-03-02T16:09:09.814Z,14.02
2023-03-02T16:11:13.320Z,14.38
2023-03-02T16:13:16.660Z,14.40
2023-03-02T16:15:21.107Z,14.45
2023-03-02T16:17:24.131Z,15.07
2023-03-02T16:19:27.257Z,15.85
2023-03-02T16:21:30.276Z,18.13
2023-03-02T16:23:33.302Z,20.05
2023-03-02T16:25:40.072Z,23.52
2023-03-02T16:27:47.409Z,26.75
2023-03-02T16:29:50.855Z,20.23
2023-03-02T16:31:55.287Z,22.83
2023-03-02T16:33:59.336Z,27.90
2023-03-02T16:36:02.262Z,28.65
2023-03-02T16:38:06.648Z,27.15
2023-03-02T16:40:11.678Z,27.08
2023-03-02T16:42:15.018Z,29.02
2023-03-02T16:44:18.293Z,27.70
2023-03-02T16:46:23.170Z,30.58
2023-03-02T16:48:27.503Z,28.70
2023-03-02T16:50:30.572Z,28.98
2023-03-02T16:52:33.793Z,29.40
2023-03-02T16:54:36.849Z,28.75
2023-03-02T16:56:41.576Z,25.85
2023-03-02T16:58:44.622Z,25.58
2023-03-02T17:00:47.942Z,24.33
2023-03-02T17:02:51.900Z,26.67
2023-03-02T17:04:56.294Z,29.90
2023-03-02T17:07:00.897Z,24.58
2023-03-02T17:09:04.557Z,23.65
2023-03-02T17:11:07.763Z,27.48
2023-03-02T17:13:12.633Z,24.02
2023-03-02T17:15:15.708Z,26.17
2023-03-02T17:17:18.541Z,22.73
2023-03-02T17:19:27.412Z,22.70
2023-03-02T17:21:31.961Z,20.40
2023-03-02T17:23:34.938Z,23.00
2023-03-02T17:25:37.811Z,28.42
2023-03-02T17:27:40.648Z,29.35
2023-03-02T17:29:43.490Z,32.65
2023-03-02T17:31:46.489Z,29.88
2023-03-02T17:33:49.328Z,32.85
2023-03-02T17:35:52.477Z,25.63
2023-03-02T17:37:57.073Z,26.65
2023-03-02T17:39:59.999Z,30.10
2023-03-02T17:42:02.814Z,31.83
2023-03-02T17:44:06.199Z,32.00
2023-03-02T17:46:11.838Z,32.92
2023-03-02T17:48:14.857Z,33.38
2023-03-02T17:50:18.116Z,31.63
2023-03-02T17:52:22.106Z,30.88
2023-03-02T17:54:26.587Z,31.20
2023-03-02T17:56:30.360Z,31.52
2023-03-02T17:58:44.226Z,31.90
2023-03-02T18:00:47.879Z,31.77
2023-03-02T18:02:52.094Z,31.75
2023-03-02T18:04:55.118Z,32.22
2023-03-02T18:06:58.011Z,33.25
2023-03-02T18:09:00.951Z,34.35
2023-03-02T18:11:06.149Z,34.50
2023-03-02T18:13:09.143Z,33.30
2023-03-02T18:15:12.619Z,33.30
2023-03-02T18:17:15.533Z,34.90
2023-03-02T18:19:18.414Z,32.83
2023-03-02T18:21:22.485Z,32.85
2023-03-02T18:23:25.299Z,32.97
2023-03-02T18:25:29.028Z,32.92
2023-03-02T18:27:33.365Z,32.88
2023-03-02T18:29:36.347Z,33.80
2023-03-02T18:31:39.421Z,34.67
2023-03-02T18:33:42.721Z,33.13
2023-03-02T18:35:45.634Z,31.85
2023-03-02T18:37:48.803Z,32.72
2023-03-02T18:39:51.739Z,32.28
2023-03-02T18:41:54.567Z,29.65
2023-03-02T18:44:01.544Z,29.98
2023-03-02T18:46:05.586Z,30.83
2023-03-02T18:48:08.397Z,29.10
2023-03-02T18:50:12.524Z,30.60
2023-03-02T18:52:16.970Z,30.90
2023-03-02T18:54:19.819Z,32.63
2023-03-02T18:56:23.283Z,33.42
2023-03-02T18:58:26.296Z,36.25
2023-03-02T19:00:31.419Z,39.53
2023-03-02T19:02:34.699Z,42.47
2023-03-02T19:04:37.746Z,42.80
2023-03-02T19:06:40.937Z,42.50
2023-03-02T19:08:44.180Z,41.10
2023-03-02T19:10:47.220Z,37.92
2023-03-02T19:12:50.588Z,38.95
2023-03-02T19:14:55.308Z,38.38
2023-03-02T19:17:03.497Z,38.03
2023-03-02T19:19:07.582Z,36.72
2023-03-02T19:21:10.486Z,35.42
2023-03-02T19:23:14.054Z,36.33
2023-03-02T19:25:17.096Z,35.58
2023-03-02T19:27:20.095Z,36.72
2023-03-02T19:29:23.663Z,37.13
2023-03-02T19:31:27.808Z,36.10
2023-03-02T19:33:32.307Z,37.00
2023-03-02T19:35:35.702Z,34.00
2023-03-02T19:37:38.578Z,35.85
2023-03-02T19:39:42.190Z,36.00
2023-03-02T19:41:45.250Z,36.40
2023-03-02T19:43:49.063Z,35.35
2023-03-02T19:45:52.043Z,35.60
2023-03-02T19:47:57.588Z,35.40
2023-03-02T19:52:05.509Z,34.92
2023-03-02T19:54:08.647Z,35.10
2023-03-02T19:56:13.419Z,34.30
2023-03-02T19:58:20.154Z,36.67
2023-03-02T20:00:24.716Z,33.03
2023-03-02T20:02:27.715Z,33.95
2023-03-02T20:04:30.788Z,34.28
2023-03-02T20:06:35.880Z,34.33
2023-03-02T20:08:39.158Z,33.30
2023-03-02T20:10:43.681Z,33.47
2023-03-02T20:12:46.698Z,32.97
2023-03-02T20:14:50.928Z,34.15
2023-03-02T20:16:53.888Z,35.75
2023-03-02T20:18:58.389Z,32.95
2023-03-02T20:21:01.467Z,36.47
2023-03-02T20:23:05.887Z,35.70
2023-03-02T20:25:09.997Z,34.57
2023-03-02T20:27:13.418Z,33.92
2023-03-02T20:29:17.177Z,34.65
2023-03-02T20:31:20.378Z,34.78
2023-03-02T20:33:27.477Z,34.78
2023-03-02T20:35:33.142Z,34.40
2023-03-02T20:37:36.747Z,34.67
2023-03-02T20:39:43.677Z,35.80
2023-03-02T20:41:46.694Z,35.85
2023-03-02T20:43:49.770Z,35.70
2023-03-02T20:45:52.840Z,34.85
2023-03-02T20:47:55.876Z,36.70
2023-03-02T20:49:59.116Z,36.05
2023-03-02T20:52:02.126Z,36.92
2023-03-02T20:54:06.367Z,35.03
2023-03-02T20:56:13.046Z,36.08
2023-03-02T20:58:16.320Z,36.88
2023-03-02T21:00:25.725Z,36.38
2023-03-02T21:02:28.777Z,36.30
2023-03-02T21:04:31.973Z,38.70
2023-03-02T21:06:35.225Z,37.92
2023-03-02T21:08:41.406Z,38.80
2023-03-02T21:10:45.162Z,38.33
2023-03-02T21:12:49.558Z,36.47
2023-03-02T21:14:52.796Z,37.20
2023-03-02T21:16:55.654Z,37.20
2023-03-02T21:18:59.592Z,38.70
2023-03-02T21:21:03.082Z,37.85
2023-03-02T21:23:06.109Z,40.65
2023-03-02T21:25:10.922Z,40.35
2023-03-02T21:27:14.326Z,40.92
2023-03-02T21:29:20.776Z,40.42
2023-03-02T21:31:23.803Z,39.88
2023-03-02T21:33:27.781Z,38.75
2023-03-02T21:35:31.201Z,39.45
2023-03-02T21:37:34.121Z,39.22
2023-03-02T21:39:37.375Z,38.38
2023-03-02T21:41:40.629Z,39.72
2023-03-02T21:43:43.638Z,40.08
2023-03-02T21:45:48.001Z,39.78
2023-03-02T21:47:51.440Z,42.00
2023-03-02T21:49:54.248Z,42.72
2023-03-02T21:51:57.360Z,40.80
2023-03-02T21:54:00.638Z,39.50
2023-03-02T21:56:03.972Z,40.90
2023-03-02T21:58:07.470Z,42.88
2023-03-02T22:00:18.767Z,40.53
2023-03-02T22:02:23.196Z,46.03
2023-03-02T22:04:26.307Z,44.45
2023-03-02T22:06:33.633Z,43.58
2023-03-02T22:08:37.840Z,43.42
2023-03-02T22:10:42.408Z,44.22
2023-03-02T22:12:45.680Z,46.83
2023-03-02T22:14:48.747Z,47.63
2023-03-02T22:16:52.492Z,47.47
2023-03-02T22:18:58.502Z,44.53
2023-03-02T22:21:02.021Z,43.20
2023-03-02T22:23:13.435Z,42.83
2023-03-02T22:25:18.353Z,43.35
2023-03-02T22:27:24.678Z,43.00
2023-03-02T22:29:30.158Z,44.08
2023-03-02T22:31:33.110Z,43.00
2023-03-02T22:33:37.550Z,42.13
2023-03-02T22:35:42.934Z,41.17
2023-03-02T22:39:50.404Z,40.25
2023-03-02T22:41:59.812Z,41.08
2023-03-02T22:44:03.222Z,43.05
2023-03-02T22:46:15.629Z,43.40
2023-03-02T22:48:21.388Z,45.10
2023-03-02T22:50:26.328Z,45.78
2023-03-02T22:52:37.474Z,43.72
2023-03-02T22:54:40.453Z,45.35
2023-03-02T22:56:47.793Z,45.58
2023-03-02T22:58:52.103Z,47.42
2023-03-02T23:00:55.570Z,47.00
2023-03-02T23:02:58.577Z,45.35
2023-03-02T23:05:01.596Z,47.65
2023-03-02T23:07:14.599Z,45.53
2023-03-02T23:09:22.052Z,44.03
2023-03-02T23:11:25.278Z,44.42
2023-03-02T23:13:40.232Z,44.45
2023-03-02T23:15:43.326Z,43.15
2023-03-02T23:17:49.295Z,42.53
2023-03-02T23:19:52.265Z,43.20
2023-03-02T23:21:55.734Z,47.08
2023-03-02T23:23:58.606Z,47.90
2023-03-02T23:26:03.041Z,43.92
2023-03-02T23:28:06.455Z,47.00
2023-03-02T23:30:10.556Z,45.88
2023-03-02T23:32:13.723Z,45.13
2023-03-02T23:34:16.705Z,44.05
2023-03-02T23:36:21.342Z,44.63
2023-03-02T23:38:24.403Z,44.10
2023-03-02T23:40:27.451Z,43.33
2023-03-02T23:42:31.771Z,43.65
2023-03-02T23:44:34.770Z,44.92
2023-03-02T23:46:37.564Z,45.00
2023-03-02T23:48:41.418Z,44.53
2023-03-02T23:50:45.208Z,46.42
2023-03-02T23:52:48.946Z,47.05
2023-03-02T23:54:51.867Z,43.72
2023-03-02T23:56:54.888Z,44.60
2023-03-02T23:58:59.397Z,46.03
